Village, VA (22570)

1:37 PM EDT on March 27, 2015 (GMT -0400)
Lodge Creek | | Change Station
CLOSE
Current Station
Personal Weather Station
Location: Callao, VA
Elevation: 21 ft
Nearby Weather Stations

Elev 21 ft 38.00 °N, 76.55 °W | Updated 11 seconds ago

Rain
Rain
41.7 °F
Feels Like 42 °F
N
0.7
Wind Variable Wind from NE
Gusts 3.1 mph

Today
High -- | Low -- °F
--% Chance of Precip.
Yesterday
High -- | Low -- °F
Precip. -- in
6:59 AM 7:24 PM
First Quarter, 54% visible
Pressure 29.81 in
Visibility 5.0 miles
Clouds Few 900 ft
Mostly Cloudy 1300 ft
Overcast 2600 ft
Windchill 42 °F
Dew Point 25 °F
Humidity 51%
Rainfall 0.18 in
Snow Depth Not available.
UV 3 out of 12
Pollen 2.20 out of 12
Air Quality Not available.
Flu Activity Not available.
SPECI KNUI 271710Z AUTO VRB03KT 5SM -RA FEW009 BKN013 OVC026 05/02 A2981 RMK AO2 P0001 T00500022

More Conditions Fewer Conditions

Pressure 29.81 in
Visibility 5.0 miles
Clouds Few 900 ft
Mostly Cloudy 1300 ft
Overcast 2600 ft
Windchill 42 °F
Dew Point 25 °F
Humidity 51%
Rainfall 0.18 in
Snow Depth Not available.
UV 3 out of 12
Pollen 2.20 out of 12
Air Quality Not available.
Flu Activity Not available.
SPECI KNUI 271710Z AUTO VRB03KT 5SM -RA FEW009 BKN013 OVC026 05/02 A2981 RMK AO2 P0001 T00500022

More Conditions Fewer Conditions

10-Day Weather Forecast

Almanac

Astronomy

Mar. 27, 2015 Rise Set
Actual Time
Civil Twilight
Nautical Twilight
Astronomical Twilight
Moon
Length of Visible Light
Length of Day
Tomorrow will be .
, % of the Moon is Illuminated

Today's Extremes

State Highs State Lows

Community

WunderPhotos

Upload Photos

1,808,770 photos uploaded!

WunderBlogs® & News

Nearby

Air Quality

  Air Quality AQ Index Pollutant
Not available.

Snow Depth

Station Depth Elevation

Earthquake Activity

City Distance Mag. Time & Date
Minimum magnitude displayed is 2.5.

Coastal Water Temperatures

Place Temperature

Stations

Nearby Weather Stations

Station Location Temp. Windchill Dew Point Humidity Wind Precip. Elev Updated Type